createdAt,value
2023-05-14T00:00:45.874Z,0.90
2023-05-14T00:03:12.540Z,1.00
2023-05-14T00:05:39.203Z,0.90
2023-05-14T00:08:06.271Z,0.90
2023-05-14T00:10:32.864Z,0.90
2023-05-14T00:12:59.436Z,0.90
2023-05-14T00:15:26.097Z,0.93
2023-05-14T00:17:52.746Z,0.90
2023-05-14T00:20:19.434Z,1.00
2023-05-14T00:22:46.010Z,1.00
2023-05-14T00:25:12.581Z,0.90
2023-05-14T00:27:39.157Z,0.90
2023-05-14T00:30:09.355Z,1.00
2023-05-14T00:32:36.056Z,1.00
2023-05-14T00:35:04.427Z,1.00
2023-05-14T00:37:31.062Z,1.00
2023-05-14T00:39:57.940Z,0.93
2023-05-14T00:42:24.577Z,0.90
2023-05-14T00:44:51.178Z,1.00
2023-05-14T00:47:18.043Z,0.90
2023-05-14T00:49:45.618Z,0.90
2023-05-14T00:52:12.384Z,0.90
2023-05-14T00:54:39.596Z,0.90
2023-05-14T00:57:07.109Z,0.90
2023-05-14T00:59:33.893Z,1.00
2023-05-14T01:02:00.555Z,1.00
2023-05-14T01:04:27.732Z,1.02
2023-05-14T01:07:33.594Z,1.00
2023-05-14T01:10:11.954Z,1.00
2023-05-14T01:13:00.228Z,1.00
2023-05-14T01:15:30.883Z,1.08
2023-05-14T01:18:04.884Z,1.00
2023-05-14T01:20:31.521Z,0.88
2023-05-14T01:22:58.142Z,1.00
2023-05-14T01:25:24.972Z,0.90
2023-05-14T01:28:13.140Z,1.00
2023-05-14T01:31:08.048Z,0.95
2023-05-14T01:33:36.856Z,0.90
2023-05-14T01:36:03.835Z,1.00
2023-05-14T01:38:33.902Z,1.00
2023-05-14T01:41:01.157Z,1.00
2023-05-14T01:43:28.675Z,0.90
2023-05-14T01:45:55.726Z,1.00
2023-05-14T01:48:22.579Z,1.00
2023-05-14T01:50:49.227Z,0.90
2023-05-14T01:53:15.861Z,1.00
2023-05-14T01:55:42.443Z,1.00
2023-05-14T01:58:09.059Z,0.90
2023-05-14T02:00:35.618Z,1.00
2023-05-14T02:03:02.237Z,0.90
2023-05-14T02:05:28.834Z,1.00
2023-05-14T02:07:55.416Z,1.00
2023-05-14T02:10:22.084Z,0.90
2023-05-14T02:12:48.785Z,1.00
2023-05-14T02:15:15.402Z,0.95
2023-05-14T02:17:42.024Z,1.00
2023-05-14T02:20:10.397Z,1.00
2023-05-14T02:22:37.472Z,0.90
2023-05-14T02:25:04.288Z,0.90
2023-05-14T02:27:30.886Z,0.90
2023-05-14T02:30:00.775Z,0.80
2023-05-14T02:32:28.391Z,0.90
2023-05-14T02:34:55.299Z,0.90
2023-05-14T02:37:21.929Z,0.90
2023-05-14T02:39:49.186Z,0.90
2023-05-14T02:42:15.851Z,0.80
2023-05-14T02:44:42.379Z,0.90
2023-05-14T02:47:08.988Z,0.95
2023-05-14T02:49:35.638Z,0.90
2023-05-14T02:52:02.227Z,0.80
2023-05-14T02:54:28.842Z,0.90
2023-05-14T02:56:55.435Z,0.90
2023-05-14T02:59:23.684Z,0.80
2023-05-14T03:01:50.670Z,0.90
2023-05-14T03:04:17.647Z,0.80
2023-05-14T03:06:44.239Z,0.90
2023-05-14T03:09:10.894Z,1.00
2023-05-14T03:11:37.476Z,0.90
2023-05-14T03:14:04.036Z,1.00
2023-05-14T03:16:30.630Z,1.08
2023-05-14T03:18:57.307Z,0.98
2023-05-14T03:21:23.952Z,0.90
2023-05-14T03:23:50.612Z,0.90
2023-05-14T03:26:17.211Z,0.90
2023-05-14T03:28:44.360Z,0.90
2023-05-14T03:31:11.149Z,0.90
2023-05-14T03:33:37.790Z,1.00
2023-05-14T03:36:05.464Z,1.00
2023-05-14T03:38:32.160Z,0.90
2023-05-14T03:40:58.782Z,1.00
2023-05-14T03:43:25.319Z,1.00
2023-05-14T03:45:52.810Z,1.00
2023-05-14T03:48:20.216Z,0.90
2023-05-14T03:50:47.197Z,1.00
2023-05-14T03:53:13.955Z,1.00
2023-05-14T03:55:40.567Z,0.90
2023-05-14T03:58:13.581Z,1.00
2023-05-14T04:00:43.677Z,1.10
2023-05-14T04:03:10.426Z,0.95
2023-05-14T04:05:37.031Z,1.00
2023-05-14T04:08:03.607Z,1.00
2023-05-14T04:10:32.265Z,1.00
2023-05-14T04:12:58.827Z,1.10
2023-05-14T04:15:25.634Z,1.00
2023-05-14T04:17:52.306Z,1.20
2023-05-14T04:20:19.126Z,1.00
2023-05-14T04:22:45.745Z,1.00
2023-05-14T04:25:12.480Z,1.02
2023-05-14T04:27:40.294Z,1.10
2023-05-14T04:30:08.566Z,1.20
2023-05-14T04:32:35.543Z,1.20
2023-05-14T04:35:02.628Z,1.23
2023-05-14T04:37:29.215Z,1.17
2023-05-14T04:39:55.807Z,1.15
2023-05-14T04:42:22.590Z,1.15
2023-05-14T04:44:49.195Z,1.20
2023-05-14T04:47:15.783Z,1.20
2023-05-14T04:49:43.362Z,1.20
2023-05-14T04:52:10.035Z,1.30
2023-05-14T04:54:36.836Z,1.30
2023-05-14T04:57:03.610Z,1.33
2023-05-14T04:59:31.222Z,1.33
2023-05-14T05:01:57.944Z,1.30
2023-05-14T05:04:24.586Z,1.40
2023-05-14T05:06:51.156Z,1.58
2023-05-14T05:09:18.264Z,1.30
2023-05-14T05:11:46.262Z,1.38
2023-05-14T05:14:12.850Z,1.45
2023-05-14T05:16:39.511Z,1.48
2023-05-14T05:19:06.132Z,1.20
2023-05-14T05:21:33.355Z,1.50
2023-05-14T05:23:59.996Z,1.40
2023-05-14T05:26:27.226Z,1.33
2023-05-14T05:28:53.976Z,1.50
2023-05-14T05:31:20.694Z,1.42
2023-05-14T05:33:47.601Z,1.25
2023-05-14T05:36:14.162Z,1.50
2023-05-14T05:38:40.700Z,1.30
2023-05-14T05:41:07.554Z,1.30
2023-05-14T05:43:34.262Z,1.30
2023-05-14T05:46:01.257Z,1.30
2023-05-14T05:48:28.255Z,1.40
2023-05-14T05:50:55.019Z,1.30
2023-05-14T05:53:21.612Z,1.40
2023-05-14T05:55:48.210Z,1.60
2023-05-14T05:58:17.235Z,1.20
2023-05-14T06:00:44.080Z,1.20
2023-05-14T06:03:11.457Z,1.30
2023-05-14T06:05:38.229Z,1.50
2023-05-14T06:08:05.237Z,1.40
2023-05-14T06:10:32.032Z,1.50
2023-05-14T06:12:58.632Z,1.48
2023-05-14T06:15:25.295Z,1.60
2023-05-14T06:17:51.990Z,1.40
2023-05-14T06:20:19.301Z,1.30
2023-05-14T06:22:45.920Z,1.40
2023-05-14T06:25:12.518Z,1.60
2023-05-14T06:27:39.138Z,1.27
2023-05-14T06:30:07.054Z,1.40
2023-05-14T06:32:33.681Z,1.40
2023-05-14T06:35:01.430Z,1.20
2023-05-14T06:37:27.985Z,1.27
2023-05-14T06:39:57.676Z,1.25
2023-05-14T06:42:24.540Z,1.33
2023-05-14T06:44:51.093Z,1.33
2023-05-14T06:47:17.706Z,1.38
2023-05-14T06:49:44.306Z,1.40
2023-05-14T06:52:10.874Z,1.23
2023-05-14T06:54:37.501Z,1.38
2023-05-14T06:57:04.313Z,1.30
2023-05-14T06:59:30.925Z,1.33
2023-05-14T07:01:57.792Z,1.40
2023-05-14T07:04:24.460Z,1.40
2023-05-14T07:06:51.157Z,1.25
2023-05-14T07:09:17.714Z,1.55
2023-05-14T07:11:44.320Z,1.40
2023-05-14T07:14:11.017Z,1.58
2023-05-14T07:16:37.707Z,1.40
2023-05-14T07:19:04.350Z,1.42
2023-05-14T07:21:31.777Z,1.45
2023-05-14T07:23:58.448Z,1.60
2023-05-14T07:26:25.054Z,1.50
2023-05-14T07:28:51.638Z,1.55
2023-05-14T07:31:18.339Z,1.40
2023-05-14T07:33:44.943Z,1.63
2023-05-14T07:36:11.629Z,1.60
2023-05-14T07:38:38.326Z,1.67
2023-05-14T07:41:05.339Z,1.80
2023-05-14T07:43:31.975Z,1.40
2023-05-14T07:45:58.625Z,1.70
2023-05-14T07:48:25.266Z,1.65
2023-05-14T07:50:51.967Z,1.50
2023-05-14T07:53:18.669Z,1.50
2023-05-14T07:55:46.938Z,1.40
2023-05-14T07:58:13.510Z,1.58
2023-05-14T08:00:40.119Z,1.75
2023-05-14T08:03:06.878Z,1.52
2023-05-14T08:05:33.647Z,1.77
2023-05-14T08:08:00.228Z,1.80
2023-05-14T08:10:27.473Z,1.73
2023-05-14T08:12:54.987Z,1.85
2023-05-14T08:15:21.625Z,2.00
2023-05-14T08:17:48.335Z,1.90
2023-05-14T08:20:14.988Z,1.98
2023-05-14T08:22:41.637Z,1.98
2023-05-14T08:25:08.302Z,1.80
2023-05-14T08:27:35.110Z,2.10
2023-05-14T08:30:01.748Z,1.95
2023-05-14T08:32:28.439Z,1.80
2023-05-14T08:34:55.044Z,2.03
2023-05-14T08:37:21.617Z,1.88
2023-05-14T08:39:48.209Z,1.83
2023-05-14T08:42:18.316Z,1.67
2023-05-14T08:44:52.499Z,1.85
2023-05-14T08:47:22.019Z,1.52
2023-05-14T08:49:56.884Z,1.40
2023-05-14T08:52:23.575Z,1.58
2023-05-14T08:54:53.746Z,1.52
2023-05-14T08:57:21.453Z,1.30
2023-05-14T08:59:48.570Z,1.30
2023-05-14T09:02:17.441Z,1.40
2023-05-14T09:04:44.947Z,1.30
2023-05-14T09:07:11.899Z,1.27
2023-05-14T09:09:38.762Z,1.10
2023-05-14T09:12:06.545Z,1.20
2023-05-14T09:14:33.508Z,1.20
2023-05-14T09:17:00.233Z,1.20
2023-05-14T09:19:27.029Z,1.10
2023-05-14T09:21:58.363Z,1.20
2023-05-14T09:24:29.149Z,1.20
2023-05-14T09:26:58.980Z,1.10
2023-05-14T09:29:29.580Z,1.10
2023-05-14T09:31:57.750Z,1.10
2023-05-14T09:34:26.073Z,1.20
2023-05-14T09:37:03.267Z,1.15
2023-05-14T09:39:30.865Z,1.10
2023-05-14T09:41:58.803Z,1.20
2023-05-14T09:44:25.898Z,1.08
2023-05-14T09:46:53.295Z,1.23
2023-05-14T09:49:21.848Z,1.20
2023-05-14T09:51:49.463Z,1.30
2023-05-14T09:54:16.266Z,1.25
2023-05-14T09:56:43.783Z,1.30
2023-05-14T09:59:10.724Z,1.10
2023-05-14T10:01:38.749Z,1.30
2023-05-14T10:04:09.316Z,1.05
2023-05-14T10:06:39.948Z,1.20
2023-05-14T10:09:12.450Z,1.10
2023-05-14T10:11:43.072Z,1.10
2023-05-14T10:14:28.799Z,1.15
2023-05-14T10:16:57.547Z,1.10
2023-05-14T10:19:25.279Z,1.23
2023-05-14T10:22:05.183Z,1.35
2023-05-14T10:24:33.309Z,1.20
2023-05-14T10:27:00.365Z,1.33
2023-05-14T10:29:34.659Z,1.50
2023-05-14T10:32:09.168Z,1.33
2023-05-14T10:34:46.185Z,1.50
2023-05-14T10:37:15.454Z,1.38
2023-05-14T10:39:48.422Z,1.50
2023-05-14T10:42:23.301Z,1.45
2023-05-14T10:45:12.883Z,1.50
2023-05-14T10:47:42.865Z,1.30
2023-05-14T10:50:13.120Z,1.30
2023-05-14T10:52:44.140Z,1.35
2023-05-14T10:55:14.492Z,1.40
2023-05-14T10:57:44.406Z,1.27
2023-05-14T11:00:12.585Z,1.20
2023-05-14T11:02:41.809Z,1.55
2023-05-14T11:05:11.605Z,1.60
2023-05-14T11:07:40.416Z,1.50
2023-05-14T11:10:09.312Z,1.40
2023-05-14T11:12:41.637Z,1.50
2023-05-14T11:15:10.358Z,1.65
2023-05-14T11:17:38.253Z,1.75
2023-05-14T11:20:06.534Z,1.73
2023-05-14T11:22:33.360Z,1.70
2023-05-14T11:25:00.382Z,1.98
2023-05-14T11:27:27.119Z,1.73
2023-05-14T11:29:55.663Z,1.88
2023-05-14T11:32:22.279Z,1.45
2023-05-14T11:34:48.960Z,1.80
2023-05-14T11:37:16.612Z,1.80
2023-05-14T11:39:52.209Z,1.60
2023-05-14T11:42:19.779Z,1.40
2023-05-14T11:44:52.016Z,1.58
2023-05-14T11:47:21.816Z,1.50
2023-05-14T11:49:49.399Z,1.20
2023-05-14T11:52:19.536Z,1.30
2023-05-14T11:54:46.872Z,1.45
2023-05-14T11:57:16.527Z,1.42
2023-05-14T11:59:43.502Z,1.20
2023-05-14T12:02:15.458Z,1.40
2023-05-14T12:04:43.328Z,1.35
2023-05-14T12:07:15.390Z,1.40
2023-05-14T12:09:50.661Z,1.20
2023-05-14T12:12:21.862Z,1.40
2023-05-14T12:14:49.850Z,1.23
2023-05-14T12:17:22.128Z,1.20
2023-05-14T12:19:51.046Z,1.30
2023-05-14T12:22:23.230Z,1.30
2023-05-14T12:24:57.709Z,1.20
2023-05-14T12:27:29.656Z,1.20
2023-05-14T12:30:20.751Z,1.17
2023-05-14T12:32:52.896Z,1.40
2023-05-14T12:35:21.549Z,1.17
2023-05-14T12:37:48.251Z,1.30
2023-05-14T12:40:14.928Z,1.20
2023-05-14T12:42:41.593Z,1.15
2023-05-14T12:45:08.852Z,1.10
2023-05-14T12:47:36.315Z,1.30
2023-05-14T12:50:03.295Z,1.25
2023-05-14T12:54:59.360Z,1.50
2023-05-14T12:57:27.757Z,1.60
2023-05-14T12:59:55.485Z,1.40
2023-05-14T13:02:22.419Z,1.40
2023-05-14T13:04:49.047Z,1.40
2023-05-14T13:07:15.726Z,1.50
2023-05-14T13:09:42.363Z,1.40
2023-05-14T13:12:09.346Z,1.42
2023-05-14T13:14:36.458Z,1.50
2023-05-14T13:17:04.923Z,1.50
2023-05-14T13:19:31.688Z,1.50
2023-05-14T13:21:58.256Z,1.45
2023-05-14T13:24:25.222Z,1.75
2023-05-14T13:26:51.853Z,1.80
2023-05-14T13:29:18.510Z,1.60
2023-05-14T13:31:45.084Z,1.75
2023-05-14T13:34:13.154Z,1.60
2023-05-14T13:36:40.765Z,1.80
2023-05-14T13:39:07.513Z,1.55
2023-05-14T13:41:38.002Z,1.55
2023-05-14T13:44:04.907Z,1.50
2023-05-14T13:46:31.528Z,1.30
2023-05-14T13:48:58.248Z,1.52
2023-05-14T13:51:25.108Z,1.50
2023-05-14T13:53:51.855Z,1.60
2023-05-14T13:56:18.706Z,1.50
2023-05-14T13:58:45.355Z,1.58
2023-05-14T14:01:11.957Z,1.55
2023-05-14T14:03:38.634Z,1.42
2023-05-14T14:06:05.305Z,1.60
2023-05-14T14:08:33.866Z,1.45
2023-05-14T14:11:00.518Z,1.55
2023-05-14T14:13:27.862Z,1.50
2023-05-14T14:15:54.509Z,1.55
2023-05-14T14:18:21.215Z,1.33
2023-05-14T14:20:47.857Z,1.40
2023-05-14T14:23:14.429Z,1.30
2023-05-14T14:25:41.046Z,1.20
2023-05-14T14:28:07.644Z,1.45
2023-05-14T14:30:34.679Z,1.42
2023-05-14T14:33:01.429Z,1.40
2023-05-14T14:35:28.112Z,1.30
2023-05-14T14:37:55.742Z,1.30
2023-05-14T14:40:23.948Z,1.50
2023-05-14T14:42:50.784Z,1.48
2023-05-14T14:45:17.673Z,1.55
2023-05-14T14:47:46.145Z,1.25
2023-05-14T14:50:13.635Z,1.40
2023-05-14T14:52:45.680Z,1.30
2023-05-14T14:55:12.869Z,1.30
2023-05-14T14:57:39.531Z,1.40
2023-05-14T15:00:07.316Z,1.30
2023-05-14T15:02:34.337Z,1.50
2023-05-14T15:05:01.355Z,1.45
2023-05-14T15:07:28.038Z,1.20
2023-05-14T15:09:54.727Z,1.30
2023-05-14T15:12:21.350Z,1.10
2023-05-14T15:14:47.923Z,1.20
2023-05-14T15:17:14.465Z,1.30
2023-05-14T15:19:41.089Z,1.13
2023-05-14T15:22:07.728Z,1.20
2023-05-14T15:24:34.328Z,1.08
2023-05-14T15:27:00.980Z,1.05
2023-05-14T15:29:28.668Z,1.20
2023-05-14T15:31:55.485Z,1.08
2023-05-14T15:34:22.124Z,1.10
2023-05-14T15:36:48.717Z,1.10
2023-05-14T15:39:15.305Z,1.20
2023-05-14T15:41:42.027Z,1.10
2023-05-14T15:44:08.658Z,1.10
2023-05-14T15:46:35.733Z,1.15
2023-05-14T15:49:02.544Z,1.20
2023-05-14T15:51:29.308Z,1.20
2023-05-14T15:53:56.084Z,1.10
2023-05-14T15:56:23.106Z,1.10
2023-05-14T15:58:50.008Z,1.20
2023-05-14T16:01:16.864Z,1.10
2023-05-14T16:03:43.788Z,1.20
2023-05-14T16:06:11.881Z,1.13
2023-05-14T16:08:38.721Z,1.30
2023-05-14T16:11:06.326Z,1.30
2023-05-14T16:13:33.334Z,1.30
2023-05-14T16:16:00.138Z,1.30
2023-05-14T16:18:26.870Z,1.20
2023-05-14T16:20:53.657Z,1.20
2023-05-14T16:23:20.498Z,1.30
2023-05-14T16:25:47.108Z,1.10
2023-05-14T16:28:13.885Z,1.25
2023-05-14T16:30:40.611Z,1.30
2023-05-14T16:33:08.480Z,1.30
2023-05-14T16:35:35.184Z,1.30
2023-05-14T16:38:01.789Z,1.27
2023-05-14T16:40:28.398Z,1.30
2023-05-14T16:42:54.951Z,1.10
2023-05-14T16:45:21.701Z,1.30
2023-05-14T16:47:48.463Z,1.30
2023-05-14T16:50:15.103Z,1.27
2023-05-14T16:52:41.645Z,1.30
2023-05-14T16:55:08.794Z,1.30
2023-05-14T16:57:35.625Z,1.33
2023-05-14T17:00:06.065Z,1.50
2023-05-14T17:02:33.398Z,1.30
2023-05-14T17:05:00.229Z,1.30
2023-05-14T17:07:26.902Z,1.30
2023-05-14T17:09:53.552Z,1.23
2023-05-14T17:12:20.157Z,1.30
2023-05-14T17:14:46.750Z,1.20
2023-05-14T17:17:13.413Z,1.20
2023-05-14T17:19:40.032Z,1.20
2023-05-14T17:22:07.330Z,1.10
2023-05-14T17:24:35.493Z,1.30
2023-05-14T17:27:02.381Z,1.10
2023-05-14T17:29:29.088Z,1.13
2023-05-14T17:31:55.859Z,1.10
2023-05-14T17:34:22.562Z,1.17
2023-05-14T17:36:49.298Z,1.30
2023-05-14T17:39:16.051Z,1.10
2023-05-14T17:41:42.926Z,1.30
2023-05-14T17:44:11.377Z,1.13
2023-05-14T17:46:39.477Z,1.30
2023-05-14T17:49:06.096Z,1.10
2023-05-14T17:51:32.732Z,1.30
2023-05-14T17:53:59.315Z,1.30
2023-05-14T17:56:25.993Z,1.30
2023-05-14T17:58:52.644Z,1.20
2023-05-14T18:01:19.289Z,1.33
2023-05-14T18:03:45.950Z,1.20
2023-05-14T18:06:12.648Z,1.15
2023-05-14T18:08:39.303Z,1.20
2023-05-14T18:11:06.080Z,1.10
2023-05-14T18:13:32.673Z,1.20
2023-05-14T18:16:00.702Z,1.02
2023-05-14T18:18:27.605Z,1.20
2023-05-14T18:20:54.297Z,1.10
2023-05-14T18:23:21.111Z,1.00
2023-05-14T18:25:48.341Z,1.20
2023-05-14T18:28:15.647Z,1.10
2023-05-14T18:30:43.530Z,1.10
2023-05-14T18:33:10.572Z,1.30
2023-05-14T18:35:37.344Z,1.25
2023-05-14T18:38:04.094Z,1.20
2023-05-14T18:40:30.827Z,1.20
2023-05-14T18:42:58.070Z,1.20
2023-05-14T18:45:25.076Z,1.20
2023-05-14T18:47:52.130Z,1.20
2023-05-14T18:50:19.408Z,1.10
2023-05-14T18:52:46.079Z,1.20
2023-05-14T18:55:12.803Z,1.15
2023-05-14T18:57:39.679Z,1.20
2023-05-14T19:00:07.170Z,1.25
2023-05-14T19:02:33.947Z,1.13
2023-05-14T19:05:00.592Z,1.30
2023-05-14T19:07:27.790Z,1.15
2023-05-14T19:09:54.557Z,1.10
2023-05-14T19:12:21.415Z,1.20
2023-05-14T19:14:48.157Z,1.15
2023-05-14T19:17:15.176Z,1.20
2023-05-14T19:19:41.755Z,1.25
2023-05-14T19:22:08.629Z,1.02
2023-05-14T19:24:35.620Z,1.20
2023-05-14T19:27:02.402Z,1.00
2023-05-14T19:29:29.332Z,1.20
2023-05-14T19:31:56.124Z,1.00
2023-05-14T19:34:22.973Z,1.20
2023-05-14T19:36:50.186Z,1.10
2023-05-14T19:39:16.860Z,1.10
2023-05-14T19:41:43.683Z,1.00
2023-05-14T19:44:10.386Z,1.00
2023-05-14T19:46:37.124Z,1.20
2023-05-14T19:49:18.612Z,1.10
2023-05-14T19:51:45.268Z,1.20
2023-05-14T19:54:12.070Z,1.10
2023-05-14T19:56:38.788Z,1.10
2023-05-14T19:59:05.558Z,1.20
2023-05-14T20:01:32.463Z,1.00
2023-05-14T20:03:59.325Z,1.17
2023-05-14T20:06:26.058Z,1.10
2023-05-14T20:08:52.856Z,1.10
2023-05-14T20:11:19.712Z,1.10
2023-05-14T20:13:46.550Z,1.10
2023-05-14T20:16:16.768Z,1.00
2023-05-14T20:18:44.186Z,1.00
2023-05-14T20:21:11.138Z,1.10
2023-05-14T20:23:38.094Z,1.00
2023-05-14T20:26:04.863Z,1.00
2023-05-14T20:28:31.642Z,1.10
2023-05-14T20:31:03.076Z,1.00
2023-05-14T20:33:30.557Z,1.17
2023-05-14T20:35:57.388Z,1.10
2023-05-14T20:38:25.810Z,1.10
2023-05-14T20:40:52.422Z,1.10
2023-05-14T20:43:19.041Z,1.02
2023-05-14T20:45:45.829Z,1.20
2023-05-14T20:48:16.230Z,1.20
2023-05-14T20:50:43.510Z,1.15
2023-05-14T20:53:10.125Z,1.10
2023-05-14T20:55:36.782Z,1.00
2023-05-14T20:58:03.485Z,1.10
2023-05-14T21:00:30.121Z,1.10
2023-05-14T21:02:56.943Z,1.08
2023-05-14T21:05:23.906Z,1.10
2023-05-14T21:07:50.722Z,1.10
2023-05-14T21:10:17.649Z,1.20
2023-05-14T21:12:44.876Z,1.02
2023-05-14T21:15:12.017Z,1.15
2023-05-14T21:17:38.695Z,1.00
2023-05-14T21:20:06.079Z,1.10
2023-05-14T21:22:32.963Z,1.08
2023-05-14T21:24:59.613Z,1.10
2023-05-14T21:27:26.637Z,1.10
2023-05-14T21:29:53.280Z,1.20
2023-05-14T21:32:22.132Z,1.20
2023-05-14T21:34:48.935Z,1.10
2023-05-14T21:37:15.578Z,1.17
2023-05-14T21:39:42.067Z,1.00
2023-05-14T21:42:09.190Z,1.10
2023-05-14T21:44:35.747Z,1.08
2023-05-14T21:47:02.352Z,1.00
2023-05-14T21:49:28.946Z,1.00
2023-05-14T21:51:55.664Z,1.00
2023-05-14T21:54:22.290Z,1.10
2023-05-14T21:56:48.986Z,1.00
2023-05-14T21:59:15.592Z,1.02
2023-05-14T22:04:12.902Z,1.10
2023-05-14T22:06:39.860Z,1.00
2023-05-14T22:09:09.812Z,1.10
2023-05-14T22:11:36.412Z,1.10
2023-05-14T22:14:02.966Z,1.00
2023-05-14T22:16:29.640Z,1.10
2023-05-14T22:18:56.343Z,1.10
2023-05-14T22:21:22.948Z,1.02
2023-05-14T22:23:50.402Z,1.10
2023-05-14T22:26:17.031Z,1.13
2023-05-14T22:28:43.751Z,1.10
2023-05-14T22:31:10.743Z,1.10
2023-05-14T22:33:37.478Z,1.10
2023-05-14T22:36:04.424Z,1.00
2023-05-14T22:38:30.953Z,1.10
2023-05-14T22:40:57.496Z,1.20
2023-05-14T22:43:24.103Z,1.00
2023-05-14T22:45:51.033Z,1.10
2023-05-14T22:48:17.935Z,1.10
2023-05-14T22:50:44.560Z,1.10
2023-05-14T22:53:11.152Z,1.20
2023-05-14T22:55:37.735Z,1.10
2023-05-14T22:58:04.537Z,1.10
2023-05-14T23:00:31.281Z,1.10
2023-05-14T23:02:57.922Z,1.10
2023-05-14T23:05:24.844Z,1.10
2023-05-14T23:07:53.091Z,0.90
2023-05-14T23:10:19.755Z,0.90
2023-05-14T23:12:46.333Z,1.00
2023-05-14T23:15:12.878Z,1.10
2023-05-14T23:17:40.074Z,1.00
2023-05-14T23:20:09.835Z,1.10
2023-05-14T23:22:36.414Z,1.10
2023-05-14T23:25:03.745Z,0.90
2023-05-14T23:27:30.282Z,0.95
2023-05-14T23:29:56.912Z,1.08
2023-05-14T23:32:23.602Z,1.10
2023-05-14T23:34:50.288Z,0.90
2023-05-14T23:37:17.011Z,0.95
2023-05-14T23:39:43.684Z,1.00
2023-05-14T23:42:10.839Z,1.00
2023-05-14T23:44:37.470Z,1.10
2023-05-14T23:47:04.880Z,1.00
2023-05-14T23:49:31.611Z,0.90
2023-05-14T23:51:58.254Z,1.05
2023-05-14T23:54:25.078Z,1.20
2023-05-14T23:56:52.580Z,1.02
2023-05-14T23:59:19.197Z,1.00
